sensor_id;sensor_type;location;lat;lon;timestamp;temperature;humidity
75170;SHT31;63749;49.186;9.222;2023-01-01T00:02:19;11.23;84.05
75170;SHT31;63749;49.186;9.222;2023-01-01T00:04:44;11.22;84.08
75170;SHT31;63749;49.186;9.222;2023-01-01T00:07:11;11.18;84.07
75170;SHT31;63749;49.186;9.222;2023-01-01T00:09:39;11.16;83.95
75170;SHT31;63749;49.186;9.222;2023-01-01T00:12:23;11.08;84.15
75170;SHT31;63749;49.186;9.222;2023-01-01T00:14:49;11.12;84.13
75170;SHT31;63749;49.186;9.222;2023-01-01T00:17:14;11.09;84.05
75170;SHT31;63749;49.186;9.222;2023-01-01T00:19:39;11.18;83.69
75170;SHT31;63749;49.186;9.222;2023-01-01T00:22:05;11.22;83.66
75170;SHT31;63749;49.186;9.222;2023-01-01T00:24:30;11.21;83.60
75170;SHT31;63749;49.186;9.222;2023-01-01T00:26:55;11.26;83.36
75170;SHT31;63749;49.186;9.222;2023-01-01T00:29:21;11.25;83.47
75170;SHT31;63749;49.186;9.222;2023-01-01T00:31:47;11.28;83.20
75170;SHT31;63749;49.186;9.222;2023-01-01T00:34:13;11.26;83.30
75170;SHT31;63749;49.186;9.222;2023-01-01T00:36:39;11.23;83.41
75170;SHT31;63749;49.186;9.222;2023-01-01T00:39:04;11.23;83.38
75170;SHT31;63749;49.186;9.222;2023-01-01T00:41:29;11.28;83.18
75170;SHT31;63749;49.186;9.222;2023-01-01T00:43:55;11.30;83.02
75170;SHT31;63749;49.186;9.222;2023-01-01T00:46:20;11.32;83.01
75170;SHT31;63749;49.186;9.222;2023-01-01T00:48:45;11.35;83.11
75170;SHT31;63749;49.186;9.222;2023-01-01T00:51:11;11.42;82.59
75170;SHT31;63749;49.186;9.222;2023-01-01T00:53:37;11.40;82.71
75170;SHT31;63749;49.186;9.222;2023-01-01T00:56:03;11.44;82.34
75170;SHT31;63749;49.186;9.222;2023-01-01T00:58:28;11.44;82.27
75170;SHT31;63749;49.186;9.222;2023-01-01T01:00:54;11.46;82.24
75170;SHT31;63749;49.186;9.222;2023-01-01T01:03:20;11.44;82.24
75170;SHT31;63749;49.186;9.222;2023-01-01T01:06:05;11.44;82.27
75170;SHT31;63749;49.186;9.222;2023-01-01T01:08:35;11.56;81.88
75170;SHT31;63749;49.186;9.222;2023-01-01T01:11:17;11.52;81.72
75170;SHT31;63749;49.186;9.222;2023-01-01T01:13:45;11.58;81.42
75170;SHT31;63749;49.186;9.222;2023-01-01T01:18:41;11.58;81.41
75170;SHT31;63749;49.186;9.222;2023-01-01T01:21:06;11.58;81.41
75170;SHT31;63749;49.186;9.222;2023-01-01T01:23:32;11.52;81.50
75170;SHT31;63749;49.186;9.222;2023-01-01T01:26:14;11.50;81.44
75170;SHT31;63749;49.186;9.222;2023-01-01T01:28:40;11.49;81.51
75170;SHT31;63749;49.186;9.222;2023-01-01T01:31:06;11.38;81.96
75170;SHT31;63749;49.186;9.222;2023-01-01T01:33:31;11.30;82.14
75170;SHT31;63749;49.186;9.222;2023-01-01T01:35:57;11.28;82.30
75170;SHT31;63749;49.186;9.222;2023-01-01T01:38:22;11.19;82.58
75170;SHT31;63749;49.186;9.222;2023-01-01T01:40:48;11.16;82.86
75170;SHT31;63749;49.186;9.222;2023-01-01T01:43:21;11.11;82.90
75170;SHT31;63749;49.186;9.222;2023-01-01T01:45:47;11.05;83.25
75170;SHT31;63749;49.186;9.222;2023-01-01T01:48:15;11.09;83.02
75170;SHT31;63749;49.186;9.222;2023-01-01T01:50:41;11.01;83.35
75170;SHT31;63749;49.186;9.222;2023-01-01T01:53:15;10.90;83.84
75170;SHT31;63749;49.186;9.222;2023-01-01T01:55:47;10.88;83.85
75170;SHT31;63749;49.186;9.222;2023-01-01T01:58:15;10.82;84.01
75170;SHT31;63749;49.186;9.222;2023-01-01T02:00:41;10.84;84.02
75170;SHT31;63749;49.186;9.222;2023-01-01T02:05:58;10.77;84.12
75170;SHT31;63749;49.186;9.222;2023-01-01T02:08:24;10.84;83.88
75170;SHT31;63749;49.186;9.222;2023-01-01T02:10:50;11.18;82.59
75170;SHT31;63749;49.186;9.222;2023-01-01T02:13:16;11.35;82.02
75170;SHT31;63749;49.186;9.222;2023-01-01T02:15:54;11.33;81.98
75170;SHT31;63749;49.186;9.222;2023-01-01T02:18:30;11.50;81.31
75170;SHT31;63749;49.186;9.222;2023-01-01T02:20:58;11.53;81.15
75170;SHT31;63749;49.186;9.222;2023-01-01T02:26:46;11.69;80.51
75170;SHT31;63749;49.186;9.222;2023-01-01T02:29:51;11.79;80.01
75170;SHT31;63749;49.186;9.222;2023-01-01T02:32:25;11.91;79.46
75170;SHT31;63749;49.186;9.222;2023-01-01T02:35:01;12.11;78.73
75170;SHT31;63749;49.186;9.222;2023-01-01T02:37:50;12.08;78.70
75170;SHT31;63749;49.186;9.222;2023-01-01T02:40:17;11.97;79.04
75170;SHT31;63749;49.186;9.222;2023-01-01T02:42:45;11.94;79.11
75170;SHT31;63749;49.186;9.222;2023-01-01T02:45:10;12.02;78.86
75170;SHT31;63749;49.186;9.222;2023-01-01T02:47:37;12.11;78.53
75170;SHT31;63749;49.186;9.222;2023-01-01T02:50:14;11.97;78.94
75170;SHT31;63749;49.186;9.222;2023-01-01T02:52:44;11.90;79.22
75170;SHT31;63749;49.186;9.222;2023-01-01T02:59:10;12.01;78.95
75170;SHT31;63749;49.186;9.222;2023-01-01T03:01:37;12.01;78.78
75170;SHT31;63749;49.186;9.222;2023-01-01T03:04:25;12.05;78.69
75170;SHT31;63749;49.186;9.222;2023-01-01T03:07:19;12.13;78.29
75170;SHT31;63749;49.186;9.222;2023-01-01T03:10:04;12.04;78.50
75170;SHT31;63749;49.186;9.222;2023-01-01T03:12:39;12.07;78.43
75170;SHT31;63749;49.186;9.222;2023-01-01T03:15:35;12.01;78.73
75170;SHT31;63749;49.186;9.222;2023-01-01T03:18:08;11.89;79.05
75170;SHT31;63749;49.186;9.222;2023-01-01T03:20:39;11.87;79.03
75170;SHT31;63749;49.186;9.222;2023-01-01T03:23:12;11.79;79.41
75170;SHT31;63749;49.186;9.222;2023-01-01T03:25:47;11.89;79.19
75170;SHT31;63749;49.186;9.222;2023-01-01T03:28:17;11.95;78.78
75170;SHT31;63749;49.186;9.222;2023-01-01T03:30:45;12.02;78.43
75170;SHT31;63749;49.186;9.222;2023-01-01T03:33:23;11.98;78.52
75170;SHT31;63749;49.186;9.222;2023-01-01T03:36:21;12.07;78.35
75170;SHT31;63749;49.186;9.222;2023-01-01T03:38:51;12.04;78.30
75170;SHT31;63749;49.186;9.222;2023-01-01T03:41:31;12.08;78.29
75170;SHT31;63749;49.186;9.222;2023-01-01T03:44:06;12.00;78.50
75170;SHT31;63749;49.186;9.222;2023-01-01T03:46:34;11.91;78.78
75170;SHT31;63749;49.186;9.222;2023-01-01T03:49:01;11.83;79.25
75170;SHT31;63749;49.186;9.222;2023-01-01T03:57:08;11.42;80.62
75170;SHT31;63749;49.186;9.222;2023-01-01T03:59:58;11.33;80.98
75170;SHT31;63749;49.186;9.222;2023-01-01T04:02:31;11.35;80.86
75170;SHT31;63749;49.186;9.222;2023-01-01T04:04:59;11.36;80.73
75170;SHT31;63749;49.186;9.222;2023-01-01T04:07:28;11.33;80.64
75170;SHT31;63749;49.186;9.222;2023-01-01T04:09:55;11.36;80.60
75170;SHT31;63749;49.186;9.222;2023-01-01T04:12:23;11.47;79.96
75170;SHT31;63749;49.186;9.222;2023-01-01T04:14:48;11.47;80.02
75170;SHT31;63749;49.186;9.222;2023-01-01T04:17:14;11.42;80.24
75170;SHT31;63749;49.186;9.222;2023-01-01T04:19:39;11.40;80.25
75170;SHT31;63749;49.186;9.222;2023-01-01T04:22:05;11.39;80.27
75170;SHT31;63749;49.186;9.222;2023-01-01T04:24:30;11.50;79.71
75170;SHT31;63749;49.186;9.222;2023-01-01T04:26:56;11.46;79.78
75170;SHT31;63749;49.186;9.222;2023-01-01T04:29:21;11.59;79.32
75170;SHT31;63749;49.186;9.222;2023-01-01T04:31:47;11.63;79.12
75170;SHT31;63749;49.186;9.222;2023-01-01T04:34:14;11.69;78.78
75170;SHT31;63749;49.186;9.222;2023-01-01T04:36:40;11.80;78.36
75170;SHT31;63749;49.186;9.222;2023-01-01T04:39:05;11.83;78.13
75170;SHT31;63749;49.186;9.222;2023-01-01T04:41:31;11.86;78.01
75170;SHT31;63749;49.186;9.222;2023-01-01T04:43:56;11.84;77.97
75170;SHT31;63749;49.186;9.222;2023-01-01T04:46:22;11.91;77.57
75170;SHT31;63749;49.186;9.222;2023-01-01T04:48:48;11.91;77.51
75170;SHT31;63749;49.186;9.222;2023-01-01T04:51:15;11.91;77.41
75170;SHT31;63749;49.186;9.222;2023-01-01T04:53:41;11.90;77.39
75170;SHT31;63749;49.186;9.222;2023-01-01T04:56:09;11.83;77.58
75170;SHT31;63749;49.186;9.222;2023-01-01T04:58:36;11.95;77.11
75170;SHT31;63749;49.186;9.222;2023-01-01T05:01:02;11.90;77.23
75170;SHT31;63749;49.186;9.222;2023-01-01T05:03:27;11.97;76.99
75170;SHT31;63749;49.186;9.222;2023-01-01T05:06:03;11.73;77.77
75170;SHT31;63749;49.186;9.222;2023-01-01T05:08:30;11.63;78.11
75170;SHT31;63749;49.186;9.222;2023-01-01T05:11:05;11.65;78.19
75170;SHT31;63749;49.186;9.222;2023-01-01T05:13:33;11.52;78.63
75170;SHT31;63749;49.186;9.222;2023-01-01T05:16:05;11.38;79.03
75170;SHT31;63749;49.186;9.222;2023-01-01T05:18:31;11.36;79.05
75170;SHT31;63749;49.186;9.222;2023-01-01T05:21:00;11.36;79.06
75170;SHT31;63749;49.186;9.222;2023-01-01T05:23:27;11.25;79.41
75170;SHT31;63749;49.186;9.222;2023-01-01T05:25:52;11.22;79.59
75170;SHT31;63749;49.186;9.222;2023-01-01T05:28:18;11.26;79.44
75170;SHT31;63749;49.186;9.222;2023-01-01T05:30:43;11.18;79.63
75170;SHT31;63749;49.186;9.222;2023-01-01T05:33:08;11.05;80.12
75170;SHT31;63749;49.186;9.222;2023-01-01T05:35:34;11.15;79.60
75170;SHT31;63749;49.186;9.222;2023-01-01T05:37:59;11.30;78.84
75170;SHT31;63749;49.186;9.222;2023-01-01T05:40:25;11.33;78.72
75170;SHT31;63749;49.186;9.222;2023-01-01T05:42:50;11.35;78.61
75170;SHT31;63749;49.186;9.222;2023-01-01T05:45:15;11.50;77.99
75170;SHT31;63749;49.186;9.222;2023-01-01T05:47:41;11.56;77.80
75170;SHT31;63749;49.186;9.222;2023-01-01T05:50:07;11.56;77.66
75170;SHT31;63749;49.186;9.222;2023-01-01T05:52:32;11.63;77.34
75170;SHT31;63749;49.186;9.222;2023-01-01T05:54:57;11.66;77.35
75170;SHT31;63749;49.186;9.222;2023-01-01T05:57:26;11.70;77.21
75170;SHT31;63749;49.186;9.222;2023-01-01T05:59:52;11.67;77.16
75170;SHT31;63749;49.186;9.222;2023-01-01T06:02:17;11.79;76.72
75170;SHT31;63749;49.186;9.222;2023-01-01T06:04:42;11.89;76.24
75170;SHT31;63749;49.186;9.222;2023-01-01T06:07:08;11.93;76.02
75170;SHT31;63749;49.186;9.222;2023-01-01T06:09:33;11.90;76.24
75170;SHT31;63749;49.186;9.222;2023-01-01T06:11:58;11.84;76.45
75170;SHT31;63749;49.186;9.222;2023-01-01T06:14:24;12.02;75.95
75170;SHT31;63749;49.186;9.222;2023-01-01T06:16:49;12.05;75.62
75170;SHT31;63749;49.186;9.222;2023-01-01T06:19:14;12.08;75.65
75170;SHT31;63749;49.186;9.222;2023-01-01T06:21:40;12.01;75.73
75170;SHT31;63749;49.186;9.222;2023-01-01T06:24:05;11.95;76.07
75170;SHT31;63749;49.186;9.222;2023-01-01T06:26:31;11.94;76.11
75170;SHT31;63749;49.186;9.222;2023-01-01T06:28:59;12.01;75.90
75170;SHT31;63749;49.186;9.222;2023-01-01T06:31:26;12.07;75.54
75170;SHT31;63749;49.186;9.222;2023-01-01T06:33:52;12.05;75.81
75170;SHT31;63749;49.186;9.222;2023-01-01T06:36:20;11.97;75.81
75170;SHT31;63749;49.186;9.222;2023-01-01T06:38:47;12.02;75.63
75170;SHT31;63749;49.186;9.222;2023-01-01T06:41:15;12.08;75.54
75170;SHT31;63749;49.186;9.222;2023-01-01T06:43:41;12.13;75.32
75170;SHT31;63749;49.186;9.222;2023-01-01T06:46:20;12.05;75.42
75170;SHT31;63749;49.186;9.222;2023-01-01T06:48:48;12.02;75.55
75170;SHT31;63749;49.186;9.222;2023-01-01T06:51:16;11.98;75.65
75170;SHT31;63749;49.186;9.222;2023-01-01T06:53:41;12.27;75.10
75170;SHT31;63749;49.186;9.222;2023-01-01T06:56:07;12.34;74.58
75170;SHT31;63749;49.186;9.222;2023-01-01T06:58:32;12.35;74.70
75170;SHT31;63749;49.186;9.222;2023-01-01T07:01:13;12.31;74.59
75170;SHT31;63749;49.186;9.222;2023-01-01T07:03:39;12.27;74.71
75170;SHT31;63749;49.186;9.222;2023-01-01T07:06:05;12.38;74.32
75170;SHT31;63749;49.186;9.222;2023-01-01T07:08:31;12.37;74.26
75170;SHT31;63749;49.186;9.222;2023-01-01T07:10:56;12.22;74.98
75170;SHT31;63749;49.186;9.222;2023-01-01T07:13:26;12.11;75.02
75170;SHT31;63749;49.186;9.222;2023-01-01T07:15:52;12.02;75.50
75170;SHT31;63749;49.186;9.222;2023-01-01T07:18:19;11.95;75.63
75170;SHT31;63749;49.186;9.222;2023-01-01T07:20:51;11.77;76.52
75170;SHT31;63749;49.186;9.222;2023-01-01T07:23:17;11.66;76.81
75170;SHT31;63749;49.186;9.222;2023-01-01T07:25:42;11.60;77.12
75170;SHT31;63749;49.186;9.222;2023-01-01T07:28:08;11.58;77.04
75170;SHT31;63749;49.186;9.222;2023-01-01T07:30:33;11.63;76.96
75170;SHT31;63749;49.186;9.222;2023-01-01T07:32:58;11.63;76.82
75170;SHT31;63749;49.186;9.222;2023-01-01T07:35:24;11.67;77.27
75170;SHT31;63749;49.186;9.222;2023-01-01T07:37:49;11.71;76.81
75170;SHT31;63749;49.186;9.222;2023-01-01T07:40:14;11.69;76.76
75170;SHT31;63749;49.186;9.222;2023-01-01T07:42:40;11.56;77.35
75170;SHT31;63749;49.186;9.222;2023-01-01T07:45:05;11.53;77.85
75170;SHT31;63749;49.186;9.222;2023-01-01T07:47:31;11.65;77.16
75170;SHT31;63749;49.186;9.222;2023-01-01T07:49:57;11.81;76.37
75170;SHT31;63749;49.186;9.222;2023-01-01T07:52:22;11.95;75.85
75170;SHT31;63749;49.186;9.222;2023-01-01T07:54:48;12.10;75.38
75170;SHT31;63749;49.186;9.222;2023-01-01T07:57:13;12.18;75.05
75170;SHT31;63749;49.186;9.222;2023-01-01T07:59:38;12.52;73.64
75170;SHT31;63749;49.186;9.222;2023-01-01T08:02:04;12.76;72.68
75170;SHT31;63749;49.186;9.222;2023-01-01T08:04:29;12.85;72.50
75170;SHT31;63749;49.186;9.222;2023-01-01T08:06:55;12.90;72.30
75170;SHT31;63749;49.186;9.222;2023-01-01T08:09:20;12.80;72.87
75170;SHT31;63749;49.186;9.222;2023-01-01T08:11:46;12.86;72.11
75170;SHT31;63749;49.186;9.222;2023-01-01T08:14:11;12.89;72.18
75170;SHT31;63749;49.186;9.222;2023-01-01T08:16:37;12.89;72.06
75170;SHT31;63749;49.186;9.222;2023-01-01T08:19:02;12.97;71.67
75170;SHT31;63749;49.186;9.222;2023-01-01T08:21:28;13.10;71.48
75170;SHT31;63749;49.186;9.222;2023-01-01T08:23:53;12.76;72.22
75170;SHT31;63749;49.186;9.222;2023-01-01T08:26:27;12.52;73.31
75170;SHT31;63749;49.186;9.222;2023-01-01T08:28:53;12.39;73.85
75170;SHT31;63749;49.186;9.222;2023-01-01T08:31:18;12.29;74.20
75170;SHT31;63749;49.186;9.222;2023-01-01T08:33:43;12.28;74.55
75170;SHT31;63749;49.186;9.222;2023-01-01T08:36:10;12.24;74.69
75170;SHT31;63749;49.186;9.222;2023-01-01T08:38:37;12.14;74.84
75170;SHT31;63749;49.186;9.222;2023-01-01T08:41:02;12.11;75.27
75170;SHT31;63749;49.186;9.222;2023-01-01T08:43:27;12.04;75.32
75170;SHT31;63749;49.186;9.222;2023-01-01T08:45:53;12.07;75.43
75170;SHT31;63749;49.186;9.222;2023-01-01T08:48:18;12.17;75.02
75170;SHT31;63749;49.186;9.222;2023-01-01T08:50:43;12.50;73.88
75170;SHT31;63749;49.186;9.222;2023-01-01T08:53:09;12.65;73.58
75170;SHT31;63749;49.186;9.222;2023-01-01T08:55:34;12.62;73.68
75170;SHT31;63749;49.186;9.222;2023-01-01T08:57:59;12.76;73.15
75170;SHT31;63749;49.186;9.222;2023-01-01T09:00:25;12.95;72.99
75170;SHT31;63749;49.186;9.222;2023-01-01T09:02:50;13.14;71.87
75170;SHT31;63749;49.186;9.222;2023-01-01T09:05:16;13.27;71.74
75170;SHT31;63749;49.186;9.222;2023-01-01T09:07:41;13.31;71.55
75170;SHT31;63749;49.186;9.222;2023-01-01T09:10:07;13.47;70.97
75170;SHT31;63749;49.186;9.222;2023-01-01T09:12:32;13.64;70.43
75170;SHT31;63749;49.186;9.222;2023-01-01T09:14:57;13.72;70.14
75170;SHT31;63749;49.186;9.222;2023-01-01T09:17:23;13.82;69.92
75170;SHT31;63749;49.186;9.222;2023-01-01T09:19:48;13.88;69.38
75170;SHT31;63749;49.186;9.222;2023-01-01T09:22:13;14.01;69.17
75170;SHT31;63749;49.186;9.222;2023-01-01T09:24:39;14.16;68.54
75170;SHT31;63749;49.186;9.222;2023-01-01T09:27:04;14.43;67.27
75170;SHT31;63749;49.186;9.222;2023-01-01T09:29:30;14.51;67.27
75170;SHT31;63749;49.186;9.222;2023-01-01T09:31:55;14.57;67.12
75170;SHT31;63749;49.186;9.222;2023-01-01T09:34:21;14.64;66.90
75170;SHT31;63749;49.186;9.222;2023-01-01T09:36:46;14.71;66.56
75170;SHT31;63749;49.186;9.222;2023-01-01T09:39:13;14.74;66.37
75170;SHT31;63749;49.186;9.222;2023-01-01T09:41:55;14.87;66.18
75170;SHT31;63749;49.186;9.222;2023-01-01T09:46:53;15.23;64.63
75170;SHT31;63749;49.186;9.222;2023-01-01T09:51:58;15.53;63.33
75170;SHT31;63749;49.186;9.222;2023-01-01T09:54:32;15.60;63.33
75170;SHT31;63749;49.186;9.222;2023-01-01T09:56:59;15.66;62.92
75170;SHT31;63749;49.186;9.222;2023-01-01T09:59:25;15.76;62.66
75170;SHT31;63749;49.186;9.222;2023-01-01T10:02:09;15.83;62.64
75170;SHT31;63749;49.186;9.222;2023-01-01T10:05:12;15.93;62.12
75170;SHT31;63749;49.186;9.222;2023-01-01T10:13:02;15.96;61.66
75170;SHT31;63749;49.186;9.222;2023-01-01T10:15:35;16.04;61.68
75170;SHT31;63749;49.186;9.222;2023-01-01T10:18:04;16.13;61.44
75170;SHT31;63749;49.186;9.222;2023-01-01T10:20:40;16.15;61.27
75170;SHT31;63749;49.186;9.222;2023-01-01T10:23:13;16.28;61.29
75170;SHT31;63749;49.186;9.222;2023-01-01T10:25:41;16.22;63.17
75170;SHT31;63749;49.186;9.222;2023-01-01T10:28:32;16.21;62.64
75170;SHT31;63749;49.186;9.222;2023-01-01T10:31:16;16.40;62.68
75170;SHT31;63749;49.186;9.222;2023-01-01T10:33:42;16.41;61.10
75170;SHT31;63749;49.186;9.222;2023-01-01T10:36:10;16.53;60.24
75170;SHT31;63749;49.186;9.222;2023-01-01T10:38:37;16.61;60.09
75170;SHT31;63749;49.186;9.222;2023-01-01T10:41:08;16.66;59.72
75170;SHT31;63749;49.186;9.222;2023-01-01T10:43:34;16.62;60.11
75170;SHT31;63749;49.186;9.222;2023-01-01T10:46:00;16.66;59.77
75170;SHT31;63749;49.186;9.222;2023-01-01T10:48:28;16.66;59.86
75170;SHT31;63749;49.186;9.222;2023-01-01T10:50:59;16.73;59.13
75170;SHT31;63749;49.186;9.222;2023-01-01T10:56:02;16.94;58.69
75170;SHT31;63749;49.186;9.222;2023-01-01T10:58:39;16.87;59.16
75170;SHT31;63749;49.186;9.222;2023-01-01T11:01:08;16.86;59.03
75170;SHT31;63749;49.186;9.222;2023-01-01T11:03:34;16.90;59.19
75170;SHT31;63749;49.186;9.222;2023-01-01T11:08:57;16.92;59.25
75170;SHT31;63749;49.186;9.222;2023-01-01T11:11:29;16.99;58.69
75170;SHT31;63749;49.186;9.222;2023-01-01T11:13:57;17.07;58.69
75170;SHT31;63749;49.186;9.222;2023-01-01T11:16:25;17.09;58.69
75170;SHT31;63749;49.186;9.222;2023-01-01T11:18:51;17.17;58.60
75170;SHT31;63749;49.186;9.222;2023-01-01T11:21:21;17.19;57.55
75170;SHT31;63749;49.186;9.222;2023-01-01T11:23:48;17.11;58.06
75170;SHT31;63749;49.186;9.222;2023-01-01T11:26:22;17.27;57.39
75170;SHT31;63749;49.186;9.222;2023-01-01T11:31:45;17.35;56.85
75170;SHT31;63749;49.186;9.222;2023-01-01T11:34:34;17.41;56.40
75170;SHT31;63749;49.186;9.222;2023-01-01T11:37:08;17.38;56.63
75170;SHT31;63749;49.186;9.222;2023-01-01T11:39:36;17.32;55.89
75170;SHT31;63749;49.186;9.222;2023-01-01T11:42:02;17.37;55.81
75170;SHT31;63749;49.186;9.222;2023-01-01T11:44:37;17.44;55.66
75170;SHT31;63749;49.186;9.222;2023-01-01T11:47:06;17.54;55.32
75170;SHT31;63749;49.186;9.222;2023-01-01T11:49:32;17.71;54.82
75170;SHT31;63749;49.186;9.222;2023-01-01T11:51:58;17.98;53.78
75170;SHT31;63749;49.186;9.222;2023-01-01T11:54:33;18.09;53.69
75170;SHT31;63749;49.186;9.222;2023-01-01T11:57:13;18.43;52.84
75170;SHT31;63749;49.186;9.222;2023-01-01T12:00:11;18.72;51.44
75170;SHT31;63749;49.186;9.222;2023-01-01T12:02:46;18.92;50.89
75170;SHT31;63749;49.186;9.222;2023-01-01T12:05:39;18.91;50.12
75170;SHT31;63749;49.186;9.222;2023-01-01T12:08:09;18.94;50.00
75170;SHT31;63749;49.186;9.222;2023-01-01T12:10:48;19.04;49.92
75170;SHT31;63749;49.186;9.222;2023-01-01T12:13:18;18.89;49.07
75170;SHT31;63749;49.186;9.222;2023-01-01T12:18:38;18.89;50.02
75170;SHT31;63749;49.186;9.222;2023-01-01T12:23:39;19.09;48.30
75170;SHT31;63749;49.186;9.222;2023-01-01T12:26:21;19.09;48.98
75170;SHT31;63749;49.186;9.222;2023-01-01T12:29:08;18.98;48.70
75170;SHT31;63749;49.186;9.222;2023-01-01T12:34:46;19.25;48.02
75170;SHT31;63749;49.186;9.222;2023-01-01T12:42:37;18.68;49.41
75170;SHT31;63749;49.186;9.222;2023-01-01T12:50:12;18.63;49.66
75170;SHT31;63749;49.186;9.222;2023-01-01T12:58:31;18.89;50.03
75170;SHT31;63749;49.186;9.222;2023-01-01T13:01:11;19.09;49.17
75170;SHT31;63749;49.186;9.222;2023-01-01T13:03:50;19.25;48.52
75170;SHT31;63749;49.186;9.222;2023-01-01T13:06:19;19.25;48.20
75170;SHT31;63749;49.186;9.222;2023-01-01T13:08:52;19.23;48.17
75170;SHT31;63749;49.186;9.222;2023-01-01T13:11:19;19.22;48.27
75170;SHT31;63749;49.186;9.222;2023-01-01T13:13:45;19.20;48.47
75170;SHT31;63749;49.186;9.222;2023-01-01T13:16:11;19.15;49.27
75170;SHT31;63749;49.186;9.222;2023-01-01T13:18:38;19.09;48.76
75170;SHT31;63749;49.186;9.222;2023-01-01T13:23:42;19.12;48.41
75170;SHT31;63749;49.186;9.222;2023-01-01T13:31:14;18.94;49.65
75170;SHT31;63749;49.186;9.222;2023-01-01T13:33:39;18.95;49.72
75170;SHT31;63749;49.186;9.222;2023-01-01T13:41:30;19.26;49.98
75170;SHT31;63749;49.186;9.222;2023-01-01T13:46:36;19.59;49.49
75170;SHT31;63749;49.186;9.222;2023-01-01T13:51:59;19.63;48.95
75170;SHT31;63749;49.186;9.222;2023-01-01T14:00:20;19.45;49.42
75170;SHT31;63749;49.186;9.222;2023-01-01T14:02:53;19.50;49.84
75170;SHT31;63749;49.186;9.222;2023-01-01T14:05:35;19.52;49.11
75170;SHT31;63749;49.186;9.222;2023-01-01T14:08:02;19.26;49.94
75170;SHT31;63749;49.186;9.222;2023-01-01T14:10:33;19.28;50.41
75170;SHT31;63749;49.186;9.222;2023-01-01T14:15:35;18.51;51.89
75170;SHT31;63749;49.186;9.222;2023-01-01T14:18:12;18.28;52.82
75170;SHT31;63749;49.186;9.222;2023-01-01T14:20:45;18.09;53.81
75170;SHT31;63749;49.186;9.222;2023-01-01T14:23:14;17.93;54.42
75170;SHT31;63749;49.186;9.222;2023-01-01T14:25:41;17.78;55.10
75170;SHT31;63749;49.186;9.222;2023-01-01T14:28:25;17.64;55.18
75170;SHT31;63749;49.186;9.222;2023-01-01T14:30:52;17.54;55.77
75170;SHT31;63749;49.186;9.222;2023-01-01T14:35:55;17.28;56.62
75170;SHT31;63749;49.186;9.222;2023-01-01T14:38:42;17.16;56.78
75170;SHT31;63749;49.186;9.222;2023-01-01T14:41:30;17.09;57.13
75170;SHT31;63749;49.186;9.222;2023-01-01T14:44:02;16.96;57.41
75170;SHT31;63749;49.186;9.222;2023-01-01T14:46:28;16.87;57.93
75170;SHT31;63749;49.186;9.222;2023-01-01T14:49:00;16.76;58.06
75170;SHT31;63749;49.186;9.222;2023-01-01T14:51:29;16.72;58.26
75170;SHT31;63749;49.186;9.222;2023-01-01T14:53:58;16.62;58.07
75170;SHT31;63749;49.186;9.222;2023-01-01T14:56:30;16.61;58.12
75170;SHT31;63749;49.186;9.222;2023-01-01T14:59:05;16.56;58.40
75170;SHT31;63749;49.186;9.222;2023-01-01T15:01:31;16.49;58.52
75170;SHT31;63749;49.186;9.222;2023-01-01T15:03:59;16.47;58.59
75170;SHT31;63749;49.186;9.222;2023-01-01T15:06:25;16.44;58.48
75170;SHT31;63749;49.186;9.222;2023-01-01T15:08:51;16.38;58.53
75170;SHT31;63749;49.186;9.222;2023-01-01T15:11:17;16.34;58.76
75170;SHT31;63749;49.186;9.222;2023-01-01T15:13:58;16.28;58.45
75170;SHT31;63749;49.186;9.222;2023-01-01T15:16:24;16.17;58.98
75170;SHT31;63749;49.186;9.222;2023-01-01T15:18:51;16.03;59.36
75170;SHT31;63749;49.186;9.222;2023-01-01T15:21:37;15.87;59.67
75170;SHT31;63749;49.186;9.222;2023-01-01T15:24:14;15.79;59.55
75170;SHT31;63749;49.186;9.222;2023-01-01T15:26:48;15.64;59.82
75170;SHT31;63749;49.186;9.222;2023-01-01T15:29:27;15.50;60.34
75170;SHT31;63749;49.186;9.222;2023-01-01T15:32:06;15.40;60.63
75170;SHT31;63749;49.186;9.222;2023-01-01T15:34:53;15.28;61.33
75170;SHT31;63749;49.186;9.222;2023-01-01T15:39:52;15.02;62.57
75170;SHT31;63749;49.186;9.222;2023-01-01T15:42:33;14.88;63.13
75170;SHT31;63749;49.186;9.222;2023-01-01T15:45:18;14.75;63.97
75170;SHT31;63749;49.186;9.222;2023-01-01T15:47:47;14.74;63.55
75170;SHT31;63749;49.186;9.222;2023-01-01T15:50:26;14.64;64.00
75170;SHT31;63749;49.186;9.222;2023-01-01T15:52:56;14.64;63.87
75170;SHT31;63749;49.186;9.222;2023-01-01T15:55:25;14.57;64.18
75170;SHT31;63749;49.186;9.222;2023-01-01T15:57:52;14.50;64.56
75170;SHT31;63749;49.186;9.222;2023-01-01T16:00:23;14.40;65.35
75170;SHT31;63749;49.186;9.222;2023-01-01T16:02:50;14.29;65.74
75170;SHT31;63749;49.186;9.222;2023-01-01T16:05:20;14.16;65.83
75170;SHT31;63749;49.186;9.222;2023-01-01T16:07:46;14.06;66.20
75170;SHT31;63749;49.186;9.222;2023-01-01T16:10:14;14.01;66.30
75170;SHT31;63749;49.186;9.222;2023-01-01T16:12:40;13.83;66.87
75170;SHT31;63749;49.186;9.222;2023-01-01T16:15:06;13.75;67.29
75170;SHT31;63749;49.186;9.222;2023-01-01T16:17:32;13.61;67.60
75170;SHT31;63749;49.186;9.222;2023-01-01T16:19:58;13.55;67.92
75170;SHT31;63749;49.186;9.222;2023-01-01T16:22:23;13.41;68.51
75170;SHT31;63749;49.186;9.222;2023-01-01T16:24:49;13.37;68.94
75170;SHT31;63749;49.186;9.222;2023-01-01T16:27:14;13.28;68.82
75170;SHT31;63749;49.186;9.222;2023-01-01T16:29:39;13.23;69.06
75170;SHT31;63749;49.186;9.222;2023-01-01T16:32:05;13.27;70.17
75170;SHT31;63749;49.186;9.222;2023-01-01T16:34:30;13.79;78.95
75170;SHT31;63749;49.186;9.222;2023-01-01T16:36:56;13.96;75.00
75170;SHT31;63749;49.186;9.222;2023-01-01T16:39:21;13.61;72.90
75170;SHT31;63749;49.186;9.222;2023-01-01T16:41:47;13.57;73.17
75170;SHT31;63749;49.186;9.222;2023-01-01T16:44:13;13.41;70.42
75170;SHT31;63749;49.186;9.222;2023-01-01T16:46:39;13.38;70.00
75170;SHT31;63749;49.186;9.222;2023-01-01T16:49:05;13.33;73.69
75170;SHT31;63749;49.186;9.222;2023-01-01T16:51:30;13.23;70.34
75170;SHT31;63749;49.186;9.222;2023-01-01T16:53:56;13.13;70.33
75170;SHT31;63749;49.186;9.222;2023-01-01T16:56:23;13.07;70.92
75170;SHT31;63749;49.186;9.222;2023-01-01T16:58:49;13.10;70.91
75170;SHT31;63749;49.186;9.222;2023-01-01T17:01:14;12.82;71.27
75170;SHT31;63749;49.186;9.222;2023-01-01T17:03:39;12.65;71.62
75170;SHT31;63749;49.186;9.222;2023-01-01T17:06:07;12.50;72.19
75170;SHT31;63749;49.186;9.222;2023-01-01T17:08:33;12.48;72.26
75170;SHT31;63749;49.186;9.222;2023-01-01T17:11:05;12.49;72.18
75170;SHT31;63749;49.186;9.222;2023-01-01T17:13:32;12.41;72.62
75170;SHT31;63749;49.186;9.222;2023-01-01T17:15:58;12.37;72.66
75170;SHT31;63749;49.186;9.222;2023-01-01T17:18:23;12.28;72.34